Time;durP1;ratioP1;P1;durP2;ratioP2;P2;SDS_P1;SDS_P2;PMS_P1;PMS_P2;Temp;Humidity;BMP_temperature;BMP_pressure;BME280_temperature;BME280_humidity;BME280_pressure;Samples;Min_cycle;Max_cycle;Signal;HPM_P1;HPM_P2
2023/04/11 00:00:06;;;;;;;5.25;3.25;;;19.50;57.20;;;;;;5035485;28;20072;-55
2023/04/11 00:02:33;;;;;;;3.15;2.85;;;19.50;57.20;;;;;;5041373;28;20037;-54
2023/04/11 00:04:59;;;;;;;3.78;3.47;;;19.50;57.30;;;;;;5034696;28;20228;-57
2023/04/11 00:07:25;;;;;;;3.25;2.95;;;19.50;57.30;;;;;;5034265;28;20267;-57
2023/04/11 00:09:50;;;;;;;3.50;3.20;;;19.50;57.30;;;;;;5037732;28;20106;-54
2023/04/11 00:12:16;;;;;;;3.55;3.25;;;19.50;57.30;;;;;;5037676;28;20032;-56
2023/04/11 00:14:47;;;;;;;3.28;2.97;;;19.50;57.30;;;;;;5037407;28;20033;-54
2023/04/11 00:17:14;;;;;;;3.17;2.78;;;19.40;57.30;;;;;;5041243;28;20119;-55
2023/04/11 00:19:42;;;;;;;3.20;2.90;;;19.40;57.40;;;;;;5035861;28;20066;-57
2023/04/11 00:22:08;;;;;;;3.40;3.10;;;19.50;57.40;;;;;;5031675;28;20163;-57
2023/04/11 00:24:33;;;;;;;3.67;3.20;;;19.40;57.40;;;;;;5035671;28;20037;-55
2023/04/11 00:27:00;;;;;;;3.20;2.70;;;19.40;57.40;;;;;;5035400;28;20502;-56
2023/04/11 00:29:26;;;;;;;3.55;3.05;;;19.40;57.40;;;;;;5038400;28;20033;-52
2023/04/11 00:31:54;;;;;;;3.78;2.85;;;19.40;57.40;;;;;;5036989;28;20171;-55
2023/04/11 00:34:20;;;;;;;3.40;3.10;;;19.50;57.40;;;;;;5034816;28;20022;-57
2023/04/11 00:36:46;;;;;;;3.50;3.20;;;19.40;57.40;;;;;;5040021;28;20113;-52
2023/04/11 00:39:13;;;;;;;4.57;3.25;;;19.40;57.30;;;;;;5033522;28;20037;-57
2023/04/11 00:41:39;;;;;;;4.93;4.03;;;19.40;57.30;;;;;;5035370;28;20510;-54
2023/04/11 00:44:05;;;;;;;3.42;2.72;;;19.40;57.30;;;;;;5042393;28;20039;-57
2023/04/11 00:46:31;;;;;;;3.30;3.00;;;19.40;57.30;;;;;;5030598;28;20317;-55
2023/04/11 00:48:57;;;;;;;3.55;2.95;;;19.40;57.30;;;;;;5032732;28;20510;-54
2023/04/11 00:51:22;;;;;;;4.10;3.13;;;19.40;57.30;;;;;;5035153;28;20040;-53
2023/04/11 00:53:48;;;;;;;2.80;2.60;;;19.40;57.30;;;;;;5030440;28;20176;-57
2023/04/11 00:56:13;;;;;;;4.00;3.08;;;19.40;57.40;;;;;;5032937;28;20490;-56
2023/04/11 00:58:40;;;;;;;3.78;3.38;;;19.40;57.40;;;;;;5038349;28;20033;-55
2023/04/11 01:01:09;;;;;;;3.47;3.10;;;19.40;57.40;;;;;;5042883;28;20029;-51
2023/04/11 01:03:36;;;;;;;3.60;3.30;;;19.40;57.40;;;;;;5040056;28;20025;-56
2023/04/11 01:06:05;;;;;;;3.53;3.22;;;19.40;57.40;;;;;;5039675;28;20036;-55
2023/04/11 01:08:32;;;;;;;3.00;2.78;;;19.40;57.40;;;;;;5039772;28;20033;-54
2023/04/11 01:10:57;;;;;;;3.88;3.30;;;19.40;57.40;;;;;;5041632;28;20033;-51
2023/04/11 01:13:23;;;;;;;4.00;3.60;;;19.40;57.40;;;;;;5037617;28;20017;-56
2023/04/11 01:15:49;;;;;;;3.67;3.10;;;19.40;57.40;;;;;;5040119;28;20537;-53
2023/04/11 01:18:14;;;;;;;3.55;3.25;;;19.40;57.40;;;;;;5037858;28;20033;-55
2023/04/11 01:20:40;;;;;;;3.33;3.00;;;19.40;57.40;;;;;;5038125;28;20026;-52
2023/04/11 01:23:08;;;;;;;3.03;2.53;;;19.40;57.40;;;;;;5034963;28;20028;-56
2023/04/11 01:25:34;;;;;;;4.57;3.13;;;19.40;57.30;;;;;;5040944;28;20038;-58
2023/04/11 01:27:59;;;;;;;3.42;3.13;;;19.40;57.30;;;;;;5037877;28;20029;-55
2023/04/11 01:30:25;;;;;;;3.72;3.33;;;19.40;57.30;;;;;;5042573;28;20504;-57
2023/04/11 01:32:50;;;;;;;3.40;2.78;;;19.40;57.30;;;;;;5040596;28;20387;-56
2023/04/11 01:35:17;;;;;;;3.42;2.83;;;19.40;57.40;;;;;;5039106;28;20128;-54
2023/04/11 01:37:43;;;;;;;3.20;2.90;;;19.40;57.30;;;;;;5040077;28;20022;-56
2023/04/11 01:40:08;;;;;;;3.85;2.75;;;19.40;57.30;;;;;;5037978;28;20048;-53
2023/04/11 01:42:36;;;;;;;2.90;2.60;;;19.40;57.40;;;;;;5036370;28;20368;-53
2023/04/11 01:45:04;;;;;;;3.22;2.60;;;19.40;57.40;;;;;;5040771;28;20119;-53
2023/04/11 01:47:30;;;;;;;3.25;2.78;;;19.40;57.40;;;;;;5036415;28;20092;-54
2023/04/11 01:49:56;;;;;;;5.95;2.95;;;19.40;57.30;;;;;;5037974;28;20033;-56
2023/04/11 01:52:21;;;;;;;3.10;2.70;;;19.40;57.30;;;;;;5035318;28;20094;-56
2023/04/11 01:54:47;;;;;;;4.75;2.70;;;19.40;57.30;;;;;;5034935;28;20520;-56
2023/04/11 01:57:13;;;;;;;3.97;2.92;;;19.40;57.30;;;;;;5036015;28;20034;-56
2023/04/11 01:59:38;;;;;;;3.92;2.88;;;19.40;57.30;;;;;;5044363;28;20337;-57
2023/04/11 02:02:04;;;;;;;4.22;2.83;;;19.40;57.30;;;;;;5040517;28;20032;-54
2023/04/11 02:04:29;;;;;;;3.53;2.50;;;19.40;57.30;;;;;;5038358;28;20044;-56
2023/04/11 02:06:55;;;;;;;5.00;2.63;;;19.40;57.30;;;;;;5039548;28;20047;-53
2023/04/11 02:09:20;;;;;;;3.17;2.88;;;19.40;57.30;;;;;;5035318;28;20025;-54
2023/04/11 02:11:46;;;;;;;3.30;2.55;;;19.40;57.30;;;;;;5043093;28;20041;-57
2023/04/11 02:14:13;;;;;;;4.20;2.58;;;19.40;57.40;;;;;;5038729;28;20048;-54
2023/04/11 02:16:55;;;;;;;4.05;3.47;;;19.40;57.40;;;;;;5036977;28;20038;-52
2023/04/11 02:19:22;;;;;;;3.72;3.15;;;19.40;57.40;;;;;;5034840;28;20067;-56
2023/04/11 02:21:48;;;;;;;3.28;2.85;;;19.30;57.30;;;;;;5036499;28;20030;-55
2023/04/11 02:24:13;;;;;;;2.55;2.22;;;19.30;57.40;;;;;;5038580;28;20025;-51
2023/04/11 02:26:40;;;;;;;3.10;2.80;;;19.30;57.30;;;;;;5036571;28;20031;-60
2023/04/11 02:29:06;;;;;;;2.50;2.30;;;19.30;57.40;;;;;;5042577;28;20025;-55
2023/04/11 02:31:31;;;;;;;2.95;2.65;;;19.30;57.40;;;;;;5034778;28;20029;-51
2023/04/11 02:33:57;;;;;;;3.72;3.40;;;19.30;57.50;;;;;;5033451;28;20028;-55
2023/04/11 02:36:22;;;;;;;3.70;2.90;;;19.30;57.50;;;;;;5038029;28;20049;-55
2023/04/11 02:38:48;;;;;;;3.50;2.90;;;19.30;57.50;;;;;;5037489;28;20037;-56
2023/04/11 02:41:14;;;;;;;3.55;2.60;;;19.20;57.50;;;;;;5039294;28;20490;-55
2023/04/11 02:43:39;;;;;;;3.17;2.80;;;19.30;57.60;;;;;;5037716;28;20033;-57
2023/04/11 02:46:05;;;;;;;3.47;3.05;;;19.20;57.50;;;;;;5038455;28;20399;-52
2023/04/11 02:48:31;;;;;;;3.50;2.88;;;19.20;57.60;;;;;;5034274;28;20394;-55
2023/04/11 02:50:56;;;;;;;3.33;3.03;;;19.20;57.60;;;;;;5031790;28;20146;-55
2023/04/11 02:53:22;;;;;;;2.75;2.50;;;19.20;57.50;;;;;;5036902;28;20036;-56
2023/04/11 02:55:47;;;;;;;3.95;2.65;;;19.20;57.50;;;;;;5037841;28;20223;-57
2023/04/11 02:58:16;;;;;;;2.97;2.67;;;19.20;57.50;;;;;;5039244;28;20067;-56
2023/04/11 03:00:42;;;;;;;4.60;2.92;;;19.20;57.50;;;;;;5034428;28;20112;-55
2023/04/11 03:03:08;;;;;;;3.33;2.83;;;19.20;57.40;;;;;;5036946;28;20297;-57
2023/04/11 03:05:34;;;;;;;3.95;3.22;;;19.30;57.50;;;;;;5033989;28;20112;-53
2023/04/11 03:07:59;;;;;;;2.47;2.28;;;19.30;57.40;;;;;;5037876;28;20048;-54
2023/04/11 03:10:25;;;;;;;3.20;2.90;;;19.20;57.40;;;;;;5041448;28;20031;-52
2023/04/11 03:12:50;;;;;;;3.08;2.78;;;19.20;57.40;;;;;;5043182;28;20048;-55
2023/04/11 03:15:16;;;;;;;3.33;2.80;;;19.30;57.40;;;;;;5036770;28;20075;-55
2023/04/11 03:17:42;;;;;;;3.40;3.00;;;19.20;57.40;;;;;;5035139;28;20359;-54
2023/04/11 03:20:10;;;;;;;3.17;2.70;;;19.20;57.40;;;;;;5030353;28;20045;-56
2023/04/11 03:22:37;;;;;;;3.45;2.60;;;19.20;57.40;;;;;;5035902;28;20180;-53
2023/04/11 03:25:04;;;;;;;3.30;2.35;;;19.20;57.30;;;;;;5035972;28;20098;-53
2023/04/11 03:27:29;;;;;;;5.03;3.17;;;19.30;57.40;;;;;;5040080;28;20047;-53
2023/04/11 03:29:55;;;;;;;2.83;2.55;;;19.20;57.30;;;;;;5032822;28;20543;-56
2023/04/11 03:32:20;;;;;;;2.70;2.47;;;19.30;58.00;;;;;;5036340;28;20040;-55
2023/04/11 03:34:46;;;;;;;2.83;2.50;;;19.20;57.20;;;;;;5035075;28;20271;-53
2023/04/11 03:37:11;;;;;;;3.83;2.88;;;19.20;57.20;;;;;;5034379;28;20053;-55
2023/04/11 03:39:37;;;;;;;3.85;2.55;;;19.30;57.30;;;;;;5038303;28;20048;-55
2023/04/11 03:42:02;;;;;;;3.20;2.70;;;19.30;57.30;;;;;;5038199;28;20029;-56
2023/04/11 03:44:28;;;;;;;3.80;2.47;;;19.30;57.40;;;;;;5036987;28;20100;-53
2023/04/11 03:46:53;;;;;;;2.88;2.60;;;19.30;57.30;;;;;;5037528;28;20025;-57
2023/04/11 03:49:19;;;;;;;3.17;2.88;;;19.30;57.30;;;;;;5032562;28;20025;-54
2023/04/11 03:51:45;;;;;;;3.25;2.95;;;19.30;57.30;;;;;;5033159;28;20574;-53
2023/04/11 03:54:10;;;;;;;3.05;2.28;;;19.30;57.30;;;;;;5037515;28;20036;-51
2023/04/11 03:56:35;;;;;;;2.85;2.50;;;19.30;57.30;;;;;;5038892;28;20029;-53
2023/04/11 03:59:01;;;;;;;2.45;2.20;;;19.30;57.30;;;;;;5035155;28;20105;-55
2023/04/11 04:01:26;;;;;;;5.00;2.72;;;19.30;57.30;;;;;;5033624;28;20034;-54
2023/04/11 04:03:52;;;;;;;3.63;2.80;;;19.30;57.30;;;;;;5032447;28;20059;-57
2023/04/11 04:06:17;;;;;;;3.38;3.00;;;19.20;57.20;;;;;;5030982;28;20099;-55
2023/04/11 04:08:43;;;;;;;2.75;2.42;;;19.30;57.30;;;;;;5036909;28;20065;-52
2023/04/11 04:11:09;;;;;;;3.58;2.92;;;19.30;57.30;;;;;;5038039;28;20021;-57
2023/04/11 04:13:35;;;;;;;2.92;2.45;;;19.30;57.20;;;;;;5032317;28;20079;-52
2023/04/11 04:16:00;;;;;;;2.88;2.58;;;19.30;57.30;;;;;;5034625;28;20398;-55
2023/04/11 04:18:26;;;;;;;4.05;2.55;;;19.30;57.20;;;;;;5031085;28;20032;-56
2023/04/11 04:20:51;;;;;;;3.33;3.03;;;19.20;57.20;;;;;;5034043;28;20048;-56
2023/04/11 04:23:17;;;;;;;2.95;2.30;;;19.30;57.20;;;;;;5036969;28;20025;-52
2023/04/11 04:25:49;;;;;;;3.35;3.03;;;19.30;57.30;;;;;;5037808;28;20025;-56
2023/04/11 04:28:19;;;;;;;2.70;2.50;;;19.30;57.20;;;;;;5034042;28;20565;-55
2023/04/11 04:30:48;;;;;;;2.97;2.58;;;19.30;57.30;;;;;;5030163;28;20148;-52
2023/04/11 04:33:17;;;;;;;2.50;2.30;;;19.30;57.30;;;;;;5034913;28;20052;-53
2023/04/11 04:35:43;;;;;;;3.80;2.83;;;19.30;57.30;;;;;;5041687;28;20037;-52
2023/04/11 04:38:16;;;;;;;2.90;2.60;;;19.30;57.20;;;;;;5040775;28;20098;-56
2023/04/11 04:40:42;;;;;;;3.22;2.33;;;19.30;57.20;;;;;;5038004;28;20103;-52
2023/04/11 04:43:10;;;;;;;3.85;2.17;;;19.30;57.20;;;;;;5042455;28;20313;-55
2023/04/11 04:45:35;;;;;;;3.35;3.05;;;19.30;57.20;;;;;;5037359;28;20033;-55
2023/04/11 04:48:01;;;;;;;3.13;2.83;;;19.30;57.20;;;;;;5034358;28;20260;-56
2023/04/11 04:50:26;;;;;;;3.65;2.75;;;19.30;57.20;;;;;;5038927;28;20360;-52
2023/04/11 04:52:52;;;;;;;2.97;2.67;;;19.30;57.20;;;;;;5039117;28;20120;-55
2023/04/11 04:55:17;;;;;;;3.03;2.50;;;19.30;57.20;;;;;;5042586;28;20029;-56
2023/04/11 04:57:43;;;;;;;3.95;2.97;;;19.30;57.20;;;;;;5040361;28;20427;-53
2023/04/11 05:00:10;;;;;;;4.47;2.30;;;19.30;57.30;;;;;;5036411;28;20086;-53
2023/04/11 05:02:36;;;;;;;2.88;2.58;;;19.30;57.20;;;;;;5035996;28;20411;-56
2023/04/11 05:05:03;;;;;;;2.97;2.58;;;19.30;57.20;;;;;;5039287;28;20448;-53
2023/04/11 05:07:29;;;;;;;3.28;2.85;;;19.30;57.30;;;;;;5037529;28;20463;-51
2023/04/11 05:09:54;;;;;;;3.30;2.83;;;19.30;57.20;;;;;;5036142;28;20529;-51
2023/04/11 05:12:25;;;;;;;4.57;2.35;;;19.30;57.20;;;;;;5035932;28;20029;-53
2023/04/11 05:14:51;;;;;;;3.33;2.65;;;19.30;57.20;;;;;;5034955;28;20248;-55
2023/04/11 05:17:17;;;;;;;3.60;3.05;;;19.30;57.30;;;;;;5034890;28;20067;-52
2023/04/11 05:19:43;;;;;;;4.22;2.85;;;19.30;57.30;;;;;;5036888;28;20064;-53
2023/04/11 05:22:08;;;;;;;6.60;2.45;;;19.30;57.30;;;;;;5041328;28;20037;-55
2023/04/11 05:24:34;;;;;;;5.53;2.70;;;19.30;57.40;;;;;;5039742;28;20468;-56
2023/04/11 05:26:59;;;;;;;4.38;2.90;;;19.30;57.40;;;;;;5039076;28;20037;-55
2023/04/11 05:29:25;;;;;;;3.20;2.80;;;19.30;57.50;;;;;;5038905;28;20025;-56
2023/04/11 05:31:50;;;;;;;3.75;2.40;;;19.30;57.50;;;;;;5040678;28;20315;-55
2023/04/11 05:34:16;;;;;;;4.47;2.42;;;19.30;57.50;;;;;;5037137;28;20037;-54
2023/04/11 05:36:41;;;;;;;3.00;2.40;;;19.30;57.60;;;;;;5034565;28;20033;-51
2023/04/11 05:39:07;;;;;;;7.97;2.95;;;19.30;57.60;;;;;;5039309;28;20037;-54
2023/04/11 05:41:32;;;;;;;4.63;3.00;;;19.30;57.60;;;;;;5036506;28;20037;-55
2023/04/11 05:43:58;;;;;;;7.68;2.70;;;19.30;57.70;;;;;;5037222;28;20033;-51
2023/04/11 05:46:23;;;;;;;4.88;2.90;;;19.30;57.80;;;;;;5034867;28;20444;-53
2023/04/11 05:48:49;;;;;;;5.63;3.20;;;19.30;57.80;;;;;;5035696;28;20112;-56
2023/04/11 05:51:14;;;;;;;6.95;2.80;;;19.30;57.90;;;;;;5039958;28;20035;-53
2023/04/11 05:53:40;;;;;;;5.53;2.70;;;19.30;58.30;;;;;;5040857;28;20367;-54
2023/04/11 05:56:06;;;;;;;11.98;3.53;;;19.40;58.40;;;;;;5039719;28;20668;-57
2023/04/11 05:58:33;;;;;;;6.13;2.60;;;19.40;58.20;;;;;;5035579;28;20037;-51
2023/04/11 06:00:59;;;;;;;6.95;3.28;;;19.50;58.20;;;;;;5035711;28;20055;-54
2023/04/11 06:03:25;;;;;;;7.22;2.65;;;19.50;58.00;;;;;;5033048;28;20028;-54
2023/04/11 06:05:51;;;;;;;8.48;2.90;;;19.50;57.90;;;;;;5034302;28;20406;-57
2023/04/11 06:08:17;;;;;;;9.23;3.25;;;19.50;57.80;;;;;;5033206;28;20029;-54
2023/04/11 06:10:42;;;;;;;3.92;2.70;;;19.50;57.80;;;;;;5036135;28;20749;-55
2023/04/11 06:13:08;;;;;;;6.97;3.22;;;19.60;57.80;;;;;;5033966;28;20037;-54
2023/04/11 06:15:33;;;;;;;7.35;2.88;;;19.60;57.80;;;;;;5031679;28;20091;-51
2023/04/11 06:17:59;;;;;;;4.65;2.90;;;19.60;57.80;;;;;;5038951;28;20024;-54
2023/04/11 06:20:24;;;;;;;7.85;3.28;;;19.50;57.60;;;;;;5041192;28;20033;-55
2023/04/11 06:22:50;;;;;;;9.20;3.22;;;19.50;57.60;;;;;;5038312;28;20029;-55
2023/04/11 06:25:20;;;;;;;10.18;3.05;;;19.50;57.60;;;;;;5039864;28;20192;-57
2023/04/11 06:27:46;;;;;;;6.65;3.53;;;19.50;57.50;;;;;;5037469;28;20175;-53
2023/04/11 06:30:12;;;;;;;5.53;2.97;;;19.50;57.60;;;;;;5034179;28;20029;-57
2023/04/11 06:32:38;;;;;;;3.95;2.63;;;19.50;57.60;;;;;;5033884;28;20040;-54
2023/04/11 06:35:04;;;;;;;9.18;3.88;;;19.50;57.60;;;;;;5037033;28;20021;-54
2023/04/11 06:37:30;;;;;;;7.70;2.97;;;19.50;57.60;;;;;;5039194;28;20044;-53
2023/04/11 06:39:57;;;;;;;6.97;3.58;;;19.50;57.60;;;;;;5038871;28;20041;-56
2023/04/11 06:42:22;;;;;;;7.57;3.47;;;19.50;57.50;;;;;;5024203;28;20071;-56
2023/04/11 06:44:48;;;;;;;9.05;3.78;;;19.50;57.50;;;;;;5036098;28;20037;-56
2023/04/11 06:47:13;;;;;;;7.93;3.67;;;19.50;57.50;;;;;;5038229;28;20036;-56
2023/04/11 06:49:39;;;;;;;4.25;2.90;;;19.50;57.50;;;;;;5038446;28;20106;-56
2023/04/11 06:52:05;;;;;;;8.70;5.13;;;19.50;57.50;;;;;;5037702;28;20029;-58
2023/04/11 06:54:31;;;;;;;12.38;6.13;;;19.50;57.80;;;;;;5040278;28;22626;-56
2023/04/11 06:56:57;;;;;;;15.35;6.18;;;19.50;57.80;;;;;;5034627;28;20395;-56
2023/04/11 06:59:23;;;;;;;12.52;6.68;;;19.50;58.20;;;;;;5033700;28;20106;-55
2023/04/11 07:01:49;;;;;;;11.60;6.90;;;19.50;58.10;;;;;;5035110;28;20439;-54
2023/04/11 07:04:15;;;;;;;16.38;7.35;;;19.40;58.00;;;;;;5031455;28;20031;-55
2023/04/11 07:06:41;;;;;;;11.13;6.05;;;19.50;58.10;;;;;;5033548;28;20025;-54
2023/04/11 07:09:08;;;;;;;16.58;7.82;;;19.40;58.00;;;;;;5031352;28;20117;-57
2023/04/11 07:11:34;;;;;;;21.10;9.57;;;19.40;58.10;;;;;;5035855;28;20056;-58
2023/04/11 07:14:00;;;;;;;21.33;9.15;;;19.50;58.50;;;;;;5031607;28;20482;-56
2023/04/11 07:16:26;;;;;;;22.08;9.85;;;19.50;58.60;;;;;;5034925;28;20175;-57
2023/04/11 07:18:52;;;;;;;23.50;10.32;;;19.50;58.70;;;;;;5036233;28;20045;-58
2023/04/11 07:21:18;;;;;;;21.17;10.10;;;19.50;58.70;;;;;;5037438;28;20025;-56
2023/04/11 07:23:43;;;;;;;21.00;9.60;;;19.50;58.80;;;;;;5036589;28;20032;-52
2023/04/11 07:26:10;;;;;;;18.55;8.32;;;19.50;58.70;;;;;;5036312;28;20086;-54
2023/04/11 07:28:37;;;;;;;23.90;9.90;;;19.50;59.40;;;;;;5034798;28;20101;-55
2023/04/11 07:31:07;;;;;;;15.25;8.32;;;19.50;58.70;;;;;;5035641;28;20348;-56
2023/04/11 07:33:33;;;;;;;15.38;9.27;;;19.50;58.70;;;;;;5033039;28;20061;-53
2023/04/11 07:35:59;;;;;;;18.00;8.25;;;19.50;58.80;;;;;;5032984;28;20087;-55
2023/04/11 07:38:28;;;;;;;15.80;8.70;;;19.50;59.40;;;;;;5031094;28;20029;-56
2023/04/11 07:40:58;;;;;;;17.35;8.98;;;19.50;58.70;;;;;;5036015;28;20036;-57
2023/04/11 07:43:25;;;;;;;19.10;9.38;;;19.50;58.70;;;;;;5030650;28;20434;-56
2023/04/11 07:45:51;;;;;;;14.95;7.82;;;19.50;58.70;;;;;;5032868;28;20048;-53
2023/04/11 07:48:16;;;;;;;15.88;7.20;;;19.60;58.80;;;;;;5037069;28;20061;-55
2023/04/11 07:50:42;;;;;;;13.80;7.22;;;19.50;58.80;;;;;;5035882;28;20029;-61
2023/04/11 07:53:09;;;;;;;16.35;7.38;;;19.50;58.70;;;;;;5035931;28;20037;-55
2023/04/11 07:55:38;;;;;;;12.75;7.47;;;19.50;58.80;;;;;;5035414;28;20060;-53
2023/04/11 07:58:04;;;;;;;13.32;7.88;;;19.50;58.90;;;;;;5032764;28;20429;-54
2023/04/11 08:00:32;;;;;;;15.45;6.70;;;19.50;59.00;;;;;;5032321;28;20280;-56
2023/04/11 08:03:01;;;;;;;15.88;6.75;;;19.50;58.80;;;;;;5030387;28;20030;-58
2023/04/11 08:05:27;;;;;;;11.80;6.35;;;19.40;59.00;;;;;;5032229;28;20052;-56
2023/04/11 08:07:53;;;;;;;17.02;7.32;;;19.40;58.90;;;;;;5032113;28;20034;-57
2023/04/11 08:10:19;;;;;;;12.88;6.47;;;19.40;58.90;;;;;;5038685;28;20337;-55
2023/04/11 08:12:44;;;;;;;14.00;6.80;;;19.40;59.00;;;;;;5037445;28;20033;-54
2023/04/11 08:15:10;;;;;;;10.43;6.07;;;19.40;59.10;;;;;;5035894;28;20032;-55
2023/04/11 08:17:37;;;;;;;12.52;6.57;;;19.40;58.90;;;;;;5041535;28;20033;-55
2023/04/11 08:20:04;;;;;;;14.63;5.90;;;19.50;58.70;;;;;;5039768;28;20091;-54
2023/04/11 08:22:32;;;;;;;13.02;6.03;;;19.60;58.70;;;;;;5041493;28;20048;-57
2023/04/11 08:24:57;;;;;;;9.57;5.65;;;19.60;58.60;;;;;;5039722;28;20075;-55
2023/04/11 08:27:23;;;;;;;10.02;5.18;;;19.60;58.50;;;;;;5041689;28;20029;-53
2023/04/11 08:29:48;;;;;;;7.72;5.15;;;19.60;58.50;;;;;;5038872;28;20103;-55
2023/04/11 08:32:14;;;;;;;12.75;5.63;;;19.60;58.30;;;;;;5038899;28;20457;-56
2023/04/11 08:34:39;;;;;;;7.63;4.30;;;19.60;58.30;;;;;;5037322;28;20063;-58
2023/04/11 08:37:05;;;;;;;11.52;5.90;;;19.70;58.30;;;;;;5038221;28;20609;-54
2023/04/11 08:39:30;;;;;;;9.35;4.97;;;19.70;58.30;;;;;;5037611;28;20033;-57
2023/04/11 08:41:56;;;;;;;8.57;4.45;;;19.70;58.30;;;;;;5036288;28;20033;-55
2023/04/11 08:44:21;;;;;;;11.43;4.85;;;19.80;58.20;;;;;;5042560;28;20510;-53
2023/04/11 08:46:47;;;;;;;8.60;4.10;;;19.80;58.10;;;;;;5040316;28;20086;-57
2023/04/11 08:49:12;;;;;;;7.53;3.83;;;19.80;58.10;;;;;;5041983;28;20056;-57
2023/04/11 08:51:41;;;;;;;9.75;4.70;;;19.90;58.10;;;;;;5039812;28;20044;-56
2023/04/11 08:54:07;;;;;;;8.57;4.68;;;19.90;58.10;;;;;;5034480;28;20111;-56
2023/04/11 08:56:34;;;;;;;9.23;4.57;;;19.90;58.00;;;;;;5045225;28;20036;-55
2023/04/11 08:59:00;;;;;;;8.25;4.65;;;19.90;57.90;;;;;;5037202;28;20041;-53
2023/04/11 09:01:36;;;;;;;7.72;4.32;;;20.00;57.90;;;;;;5034467;28;20055;-54
2023/04/11 09:04:04;;;;;;;8.23;4.15;;;20.00;58.50;;;;;;5033304;28;20116;-56
2023/04/11 09:06:31;;;;;;;5.70;3.95;;;20.00;57.80;;;;;;5034354;28;20402;-57
2023/04/11 09:08:58;;;;;;;5.10;3.65;;;20.00;57.80;;;;;;5034826;28;20451;-55
2023/04/11 09:11:24;;;;;;;7.22;3.90;;;20.00;57.80;;;;;;5037683;28;20509;-58
2023/04/11 09:14:10;;;;;;;6.10;3.33;;;20.00;57.70;;;;;;5041898;28;20069;-57
2023/04/11 09:16:36;;;;;;;;;;;20.00;57.70;;;;;;5038620;28;20025;-58
2023/04/11 09:19:02;;;;;;;7.60;3.55;;;20.00;57.60;;;;;;5037046;28;19959;-58
2023/04/11 09:21:28;;;;;;;7.57;3.67;;;20.10;57.70;;;;;;5034505;28;20090;-57
2023/04/11 09:24:12;;;;;;;4.75;3.17;;;20.00;57.60;;;;;;5037061;28;20055;-55
2023/04/11 09:26:37;;;;;;;6.05;3.35;;;20.10;57.60;;;;;;5037859;28;20028;-57
2023/04/11 09:29:03;;;;;;;5.72;3.17;;;20.10;57.60;;;;;;5033770;28;20029;-56
2023/04/11 09:31:42;;;;;;;8.63;3.45;;;20.20;57.60;;;;;;5034514;28;20067;-56
2023/04/11 09:34:08;;;;;;;4.82;3.10;;;20.20;57.60;;;;;;5035624;28;20037;-58
2023/04/11 09:36:34;;;;;;;5.63;3.05;;;20.20;57.50;;;;;;5035768;28;20033;-58
2023/04/11 09:39:14;;;;;;;5.78;3.30;;;20.20;57.50;;;;;;5045918;22;20026;-56
2023/04/11 09:41:40;;;;;;;6.38;2.90;;;20.20;57.40;;;;;;5034839;28;20084;-54
2023/04/11 09:44:05;;;;;;;6.85;2.88;;;20.20;57.40;;;;;;5039253;28;20479;-52
2023/04/11 09:46:31;;;;;;;3.92;2.65;;;20.20;57.40;;;;;;5033077;28;20064;-53
2023/04/11 09:49:00;;;;;;;5.10;3.00;;;20.20;57.40;;;;;;5041503;28;20119;-52
2023/04/11 09:51:25;;;;;;;4.22;2.40;;;20.20;57.40;;;;;;5041219;28;20120;-52
2023/04/11 09:53:51;;;;;;;4.38;2.88;;;20.20;57.40;;;;;;5039735;28;20071;-50
2023/04/11 09:56:17;;;;;;;4.57;2.60;;;20.20;57.40;;;;;;5035890;28;20029;-51
2023/04/11 09:58:42;;;;;;;6.10;3.35;;;20.20;57.40;;;;;;5036999;28;20103;-52
2023/04/11 10:01:09;;;;;;;5.75;3.08;;;20.10;57.30;;;;;;5033045;28;20434;-57
2023/04/11 10:03:37;;;;;;;3.88;2.97;;;20.10;57.30;;;;;;5033546;28;20116;-57
2023/04/11 10:06:19;;;;;;;4.35;2.58;;;20.10;57.30;;;;;;5033889;28;20033;-56
2023/04/11 10:08:46;;;;;;;6.63;2.85;;;20.10;57.40;;;;;;5034956;28;20133;-53
2023/04/11 10:11:13;;;;;;;3.90;2.70;;;20.10;57.40;;;;;;5044259;28;20031;-55
2023/04/11 10:13:45;;;;;;;5.45;2.63;;;20.10;57.40;;;;;;5037611;28;20017;-54
2023/04/11 10:16:19;;;;;;;4.10;2.67;;;20.10;57.40;;;;;;5050242;28;20026;-51
2023/04/11 10:18:53;;;;;;;5.28;2.75;;;20.10;57.40;;;;;;5080565;22;20624;-65
2023/04/11 10:21:33;;;;;;;3.38;2.42;;;20.10;57.50;;;;;;5077705;28;20035;-65
2023/04/11 10:24:16;;;;;;;6.78;2.80;;;20.10;57.70;;;;;;5077138;27;20032;-62
2023/04/11 10:26:48;;;;;;;4.95;2.50;;;20.10;57.60;;;;;;5077214;28;20041;-63
2023/04/11 10:29:32;;;;;;;5.18;2.33;;;20.20;57.70;;;;;;5073372;28;20058;-62
2023/04/11 10:32:10;;;;;;;3.95;2.17;;;20.20;57.80;;;;;;5076950;28;20450;-63
2023/04/11 10:34:37;;;;;;;4.75;2.33;;;20.30;57.80;;;;;;5077944;28;20593;-64
2023/04/11 10:37:07;;;;;;;3.95;2.08;;;20.30;57.80;;;;;;5070034;28;20564;-62
2023/04/11 10:39:50;;;;;;;5.10;2.25;;;20.40;58.00;;;;;;5080529;28;20042;-63
2023/04/11 10:42:37;;;;;;;5.28;2.47;;;20.40;57.90;;;;;;5076248;28;20073;-63
2023/04/11 10:45:28;;;;;;;7.05;1.90;;;20.40;57.80;;;;;;5042230;28;20085;-64
2023/04/11 10:48:09;;;;;;;5.97;2.35;;;20.50;57.90;;;;;;5035154;28;20029;-64
2023/04/11 10:50:36;;;;;;;3.63;2.05;;;20.50;57.90;;;;;;5085580;27;20070;-64
2023/04/11 10:53:05;;;;;;;7.13;2.10;;;20.50;57.80;;;;;;5073536;28;20028;-62
2023/04/11 10:55:48;;;;;;;4.70;1.88;;;20.50;58.20;;;;;;5077800;28;20036;-64
2023/04/11 10:58:18;;;;;;;6.20;1.77;;;20.50;57.90;;;;;;5062145;28;20487;-64
2023/04/11 11:00:50;;;;;;;3.85;1.90;;;20.50;57.80;;;;;;5076414;28;20072;-66
2023/04/11 11:03:24;;;;;;;4.00;2.25;;;20.50;57.80;;;;;;5081072;27;20035;-63
2023/04/11 11:06:01;;;;;;;4.47;2.10;;;20.50;57.80;;;;;;5077269;28;20029;-64
2023/04/11 11:08:34;;;;;;;5.00;1.65;;;20.50;57.70;;;;;;5079976;28;20262;-64
2023/04/11 11:11:01;;;;;;;4.75;1.60;;;20.50;57.60;;;;;;5074672;28;20048;-65
2023/04/11 11:13:44;;;;;;;3.22;1.75;;;20.60;57.60;;;;;;5080467;27;20028;-63
2023/04/11 11:16:36;;;;;;;3.20;2.17;;;20.50;57.60;;;;;;5077110;28;20409;-63
2023/04/11 11:19:05;;;;;;;5.72;1.98;;;20.50;57.60;;;;;;5076689;28;20041;-64
2023/04/11 11:21:33;;;;;;;5.30;2.25;;;20.50;57.50;;;;;;5078523;28;20021;-64
2023/04/11 11:24:00;;;;;;;4.38;2.50;;;20.50;57.50;;;;;;5071518;28;20670;-64
2023/04/11 11:26:38;;;;;;;2.63;1.60;;;20.50;57.50;;;;;;5073434;28;20113;-65
2023/04/11 11:29:04;;;;;;;5.35;1.80;;;20.40;57.40;;;;;;5071145;28;20035;-62
2023/04/11 11:31:44;;;;;;;3.28;1.63;;;20.40;57.40;;;;;;5074034;28;20517;-63
2023/04/11 11:34:10;;;;;;;5.68;1.80;;;20.40;57.40;;;;;;5075759;28;20035;-62
2023/04/11 11:36:45;;;;;;;3.67;1.83;;;20.40;57.40;;;;;;5084071;28;20085;-63
2023/04/11 11:39:13;;;;;;;4.70;1.40;;;20.40;57.30;;;;;;5077954;28;20032;-64
2023/04/11 11:41:40;;;;;;;2.25;1.60;;;20.40;57.40;;;;;;5073655;27;20028;-64
2023/04/11 11:44:05;;;;;;;2.63;1.52;;;20.30;57.30;;;;;;5075894;28;20078;-62
2023/04/11 11:46:34;;;;;;;4.05;1.73;;;20.30;57.30;;;;;;5077349;28;20025;-66
2023/04/11 11:49:06;;;;;;;5.03;1.77;;;20.30;57.30;;;;;;5078246;28;20024;-65
2023/04/11 11:51:42;;;;;;;5.25;1.50;;;20.30;57.30;;;;;;5081742;28;20028;-64
2023/04/11 11:54:10;;;;;;;3.60;1.88;;;20.30;57.30;;;;;;5072910;28;20032;-65
2023/04/11 11:56:37;;;;;;;3.90;1.63;;;20.30;57.30;;;;;;5075665;28;20135;-64
2023/04/11 11:59:03;;;;;;;5.35;1.63;;;20.30;57.30;;;;;;5071839;28;20056;-63
2023/04/11 12:01:33;;;;;;;3.15;1.50;;;20.20;57.30;;;;;;5075951;28;20394;-62
2023/04/11 12:03:59;;;;;;;7.43;1.80;;;20.20;57.30;;;;;;5079846;28;20146;-64
2023/04/11 12:06:32;;;;;;;3.65;1.63;;;20.20;57.30;;;;;;5082714;28;20753;-63
2023/04/11 12:09:08;;;;;;;4.68;1.40;;;20.20;57.20;;;;;;5078651;28;20051;-66
2023/04/11 12:11:41;;;;;;;3.90;1.40;;;20.20;57.20;;;;;;5080144;27;20032;-65
2023/04/11 12:14:08;;;;;;;4.80;1.38;;;20.10;57.10;;;;;;5079517;27;20113;-64
2023/04/11 12:16:37;;;;;;;3.72;1.58;;;20.10;57.20;;;;;;5079714;27;20183;-64
2023/04/11 12:19:03;;;;;;;4.82;1.40;;;20.10;57.20;;;;;;5079816;28;20040;-61
2023/04/11 12:21:29;;;;;;;3.72;1.50;;;20.10;57.20;;;;;;5077950;28;20032;-59
2023/04/11 12:23:55;;;;;;;2.78;1.52;;;20.10;57.10;;;;;;5075164;28;20186;-61
2023/04/11 12:26:21;;;;;;;3.90;1.08;;;20.10;57.20;;;;;;5074622;28;20025;-64
2023/04/11 12:28:48;;;;;;;5.15;1.35;;;20.10;57.20;;;;;;5078509;28;20035;-64
2023/04/11 12:31:13;;;;;;;5.93;1.27;;;20.10;57.20;;;;;;5008826;28;20042;-61
2023/04/11 12:33:39;;;;;;;1.90;1.17;;;20.10;57.50;;;;;;5072928;28;20032;-61
2023/04/11 12:36:06;;;;;;;2.90;1.50;;;20.10;57.70;;;;;;5081351;28;20509;-63
2023/04/11 12:38:32;;;;;;;3.22;1.50;;;20.10;57.70;;;;;;5080162;28;20359;-54
2023/04/11 12:40:58;;;;;;;4.50;1.08;;;20.10;57.70;;;;;;5077059;28;20044;-61
2023/04/11 12:43:23;;;;;;;3.78;1.38;;;20.10;57.70;;;;;;5084103;28;20044;-58
2023/04/11 12:45:49;;;;;;;3.30;1.10;;;20.10;57.70;;;;;;5077391;28;20044;-63